createdAt,value
2022-11-26T00:01:52.160Z,100.00
2022-11-26T00:04:13.634Z,100.00
2022-11-26T00:06:37.516Z,100.00
2022-11-26T00:08:59.845Z,99.86
2022-11-26T00:11:21.383Z,99.50
2022-11-26T00:13:42.826Z,99.08
2022-11-26T00:16:04.706Z,98.45
2022-11-26T00:18:29.103Z,98.18
2022-11-26T00:20:54.354Z,98.23
2022-11-26T00:23:20.768Z,98.00
2022-11-26T00:25:49.777Z,97.54
2022-11-26T00:28:30.269Z,97.35
2022-11-26T00:30:52.344Z,96.61
2022-11-26T00:33:13.780Z,96.83
2022-11-26T00:35:35.209Z,96.66
2022-11-26T00:37:58.654Z,96.23
2022-11-26T00:40:24.025Z,96.17
2022-11-26T00:42:45.981Z,96.31
2022-11-26T00:45:16.074Z,96.16
2022-11-26T00:47:37.493Z,95.82
2022-11-26T00:49:58.890Z,95.48
2022-11-26T00:52:34.589Z,96.47
2022-11-26T00:54:56.158Z,96.10
2022-11-26T00:57:17.651Z,95.85
2022-11-26T00:59:39.079Z,95.69
2022-11-26T01:02:00.539Z,95.49
2022-11-26T01:04:22.014Z,95.49
2022-11-26T01:06:45.034Z,94.38
2022-11-26T01:09:13.345Z,94.88
2022-11-26T01:11:34.816Z,94.29
2022-11-26T01:13:56.654Z,94.79
2022-11-26T01:16:23.327Z,94.52
2022-11-26T01:18:45.188Z,94.76
2022-11-26T01:21:11.603Z,94.92
2022-11-26T01:23:33.052Z,94.67
2022-11-26T01:25:54.948Z,94.65
2022-11-26T01:28:18.734Z,94.86
2022-11-26T01:30:41.124Z,94.50
2022-11-26T01:33:02.625Z,94.17
2022-11-26T01:35:24.065Z,94.29
2022-11-26T01:37:45.775Z,94.26
2022-11-26T01:40:22.374Z,94.65
2022-11-26T01:42:50.064Z,94.91
2022-11-26T01:45:17.770Z,95.12
2022-11-26T01:47:39.225Z,96.18
2022-11-26T01:50:31.496Z,96.64
2022-11-26T01:52:53.763Z,96.21
2022-11-26T01:55:17.557Z,96.20
2022-11-26T01:57:39.274Z,95.86
2022-11-26T02:00:02.028Z,95.56
2022-11-26T02:02:26.606Z,96.42
2022-11-26T02:04:56.190Z,95.44
2022-11-26T02:07:17.687Z,96.68
2022-11-26T02:09:39.756Z,96.11
2022-11-26T02:12:01.492Z,95.37
2022-11-26T02:14:26.714Z,95.61
2022-11-26T02:17:03.359Z,95.34
2022-11-26T02:20:02.750Z,95.45
2022-11-26T02:22:33.333Z,96.58
2022-11-26T02:25:22.863Z,95.77
2022-11-26T02:28:07.003Z,96.84
2022-11-26T02:30:32.065Z,96.63
2022-11-26T02:33:09.047Z,96.38
2022-11-26T02:35:41.593Z,95.99
2022-11-26T02:38:07.362Z,98.88
2022-11-26T02:40:29.088Z,99.18
2022-11-26T02:42:50.589Z,98.92
2022-11-26T02:45:19.484Z,99.67
2022-11-26T02:47:44.725Z,99.69
2022-11-26T02:50:11.891Z,100.00
2022-11-26T02:52:35.258Z,100.00
2022-11-26T02:54:57.329Z,99.94
2022-11-26T02:57:22.052Z,100.00
2022-11-26T02:59:44.553Z,100.00
2022-11-26T03:02:20.397Z,100.00
2022-11-26T03:04:46.479Z,100.00
2022-11-26T03:07:09.938Z,99.40
2022-11-26T03:09:51.883Z,100.00
2022-11-26T03:12:13.384Z,100.00
2022-11-26T03:14:35.058Z,99.63
2022-11-26T03:16:56.651Z,99.31
2022-11-26T03:19:18.141Z,99.01
2022-11-26T03:21:39.549Z,98.59
2022-11-26T03:24:01.109Z,98.32
2022-11-26T03:26:22.669Z,97.68
2022-11-26T03:28:44.132Z,97.47
2022-11-26T03:31:05.722Z,98.78
2022-11-26T03:33:27.201Z,100.00
2022-11-26T03:35:49.702Z,100.00
2022-11-26T03:38:11.316Z,100.00
2022-11-26T03:40:32.822Z,100.00
2022-11-26T03:42:54.286Z,100.00
2022-11-26T03:45:15.864Z,100.00
2022-11-26T03:47:37.827Z,100.00
2022-11-26T03:49:59.313Z,100.00
2022-11-26T03:52:20.886Z,100.00
2022-11-26T03:54:42.383Z,100.00
2022-11-26T03:57:03.891Z,100.00
2022-11-26T03:59:25.386Z,100.00
2022-11-26T04:01:46.975Z,100.00
2022-11-26T04:04:08.581Z,100.00
2022-11-26T04:06:30.034Z,100.00
2022-11-26T04:08:52.350Z,100.00
2022-11-26T04:11:14.424Z,100.00
2022-11-26T04:13:35.929Z,100.00
2022-11-26T04:15:57.354Z,100.00
2022-11-26T04:18:18.872Z,100.00
2022-11-26T04:20:40.352Z,100.00
2022-11-26T04:23:01.810Z,100.00
2022-11-26T04:25:24.150Z,100.00
2022-11-26T04:27:45.610Z,100.00
2022-11-26T04:30:08.341Z,100.00
2022-11-26T04:32:29.819Z,100.00
2022-11-26T04:34:51.333Z,100.00
2022-11-26T04:37:12.941Z,100.00
2022-11-26T04:39:34.418Z,100.00
2022-11-26T04:41:55.851Z,100.00
2022-11-26T04:44:17.307Z,100.00
2022-11-26T04:46:38.813Z,100.00
2022-11-26T04:49:00.297Z,100.00
2022-11-26T04:51:21.814Z,100.00
2022-11-26T04:53:43.298Z,100.00
2022-11-26T04:56:04.916Z,100.00
2022-11-26T04:58:26.361Z,100.00
2022-11-26T05:00:50.931Z,100.00
2022-11-26T05:03:13.291Z,100.00
2022-11-26T05:05:34.878Z,100.00
2022-11-26T05:07:56.517Z,99.24
2022-11-26T05:10:18.273Z,98.97
2022-11-26T05:12:39.768Z,97.95
2022-11-26T05:15:01.252Z,97.81
2022-11-26T05:17:22.787Z,97.79
2022-11-26T05:19:44.350Z,98.07
2022-11-26T05:22:05.777Z,97.94
2022-11-26T05:24:27.463Z,97.36
2022-11-26T05:26:53.685Z,96.47
2022-11-26T05:29:18.043Z,96.13
2022-11-26T05:31:39.507Z,95.80
2022-11-26T05:34:01.047Z,96.15
2022-11-26T05:36:22.719Z,95.43
2022-11-26T05:38:44.195Z,95.70
2022-11-26T05:41:05.687Z,94.45
2022-11-26T05:43:27.146Z,94.08
2022-11-26T05:45:48.740Z,94.39
2022-11-26T05:48:10.302Z,93.46
2022-11-26T05:50:32.674Z,94.20
2022-11-26T05:52:54.129Z,93.68
2022-11-26T05:55:16.921Z,93.61
2022-11-26T05:57:38.756Z,93.88
2022-11-26T06:00:00.213Z,93.34
2022-11-26T06:02:21.828Z,93.08
2022-11-26T06:04:43.436Z,93.40
2022-11-26T06:07:04.868Z,93.73
2022-11-26T06:09:26.369Z,94.18
2022-11-26T06:11:50.392Z,93.40
2022-11-26T06:14:11.859Z,93.08
2022-11-26T06:16:33.368Z,93.59
2022-11-26T06:18:54.885Z,91.97
2022-11-26T06:21:16.469Z,91.91
2022-11-26T06:23:37.898Z,90.62
2022-11-26T06:25:59.526Z,91.25
2022-11-26T06:28:20.988Z,91.58
2022-11-26T06:30:44.745Z,91.60
2022-11-26T06:33:06.226Z,90.81
2022-11-26T06:35:27.717Z,91.53
2022-11-26T06:37:49.231Z,91.14
2022-11-26T06:40:16.801Z,90.70
2022-11-26T06:42:38.222Z,89.91
2022-11-26T06:45:00.232Z,88.07
2022-11-26T06:47:21.824Z,89.77
2022-11-26T06:49:43.345Z,89.61
2022-11-26T06:52:05.024Z,89.79
2022-11-26T06:54:26.519Z,90.04
2022-11-26T06:56:48.151Z,89.81
2022-11-26T06:59:09.843Z,90.26
2022-11-26T07:01:31.702Z,90.60
2022-11-26T07:03:54.225Z,90.93
2022-11-26T07:06:21.278Z,90.12
2022-11-26T07:08:42.769Z,89.99
2022-11-26T07:11:04.369Z,89.74
2022-11-26T07:13:25.828Z,89.09
2022-11-26T07:15:47.333Z,89.11
2022-11-26T07:18:08.837Z,88.93
2022-11-26T07:20:30.310Z,89.18
2022-11-26T07:22:53.151Z,88.98
2022-11-26T07:25:14.690Z,88.37
2022-11-26T07:27:36.135Z,86.75
2022-11-26T07:29:57.656Z,87.84
2022-11-26T07:32:20.336Z,87.55
2022-11-26T07:34:41.874Z,87.47
2022-11-26T07:37:03.419Z,87.53
2022-11-26T07:39:24.969Z,87.04
2022-11-26T07:41:46.416Z,87.86
2022-11-26T07:44:12.248Z,87.60
2022-11-26T07:46:33.794Z,88.08
2022-11-26T07:48:56.298Z,87.20
2022-11-26T07:51:29.822Z,86.00
2022-11-26T07:53:52.498Z,86.20
2022-11-26T07:56:14.100Z,86.92
2022-11-26T07:58:35.613Z,86.69
2022-11-26T08:00:57.043Z,86.54
2022-11-26T08:03:18.504Z,87.12
2022-11-26T08:05:43.936Z,87.58
2022-11-26T08:08:05.787Z,88.11
2022-11-26T08:10:27.303Z,86.67
2022-11-26T08:12:48.796Z,87.02
2022-11-26T08:15:10.748Z,87.15
2022-11-26T08:17:32.167Z,87.86
2022-11-26T08:19:53.743Z,88.16
2022-11-26T08:22:15.178Z,87.20
2022-11-26T08:24:36.848Z,87.68
2022-11-26T08:26:59.421Z,87.18
2022-11-26T08:29:20.886Z,87.06
2022-11-26T08:31:46.518Z,87.40
2022-11-26T08:34:08.342Z,89.24
2022-11-26T08:36:31.342Z,88.36
2022-11-26T08:38:52.867Z,87.89
2022-11-26T08:41:14.474Z,87.75
2022-11-26T08:44:04.575Z,88.40
2022-11-26T08:46:18.361Z,92.78
2022-11-26T08:48:40.170Z,91.32
2022-11-26T08:51:04.451Z,91.06
2022-11-26T08:53:27.148Z,89.95
2022-11-26T08:56:00.211Z,89.25
2022-11-26T08:58:22.128Z,93.17
2022-11-26T09:00:44.273Z,94.31
2022-11-26T09:03:05.861Z,96.16
2022-11-26T09:05:27.418Z,97.97
2022-11-26T09:07:49.298Z,98.58
2022-11-26T09:10:11.228Z,100.00
2022-11-26T09:12:32.658Z,100.00
2022-11-26T09:14:54.209Z,100.00
2022-11-26T09:17:15.810Z,100.00
2022-11-26T09:19:37.337Z,100.00
2022-11-26T09:21:59.787Z,100.00
2022-11-26T09:24:21.629Z,100.00
2022-11-26T09:26:43.957Z,100.00
2022-11-26T09:29:05.655Z,99.18
2022-11-26T09:31:27.663Z,98.75
2022-11-26T09:33:49.208Z,98.85
2022-11-26T09:36:13.011Z,99.47
2022-11-26T09:38:35.551Z,99.94
2022-11-26T09:41:05.663Z,99.42
2022-11-26T09:43:36.084Z,100.00
2022-11-26T09:46:00.829Z,99.06
2022-11-26T09:48:25.025Z,98.63
2022-11-26T09:50:49.803Z,99.19
2022-11-26T09:53:43.108Z,98.98
2022-11-26T09:56:10.057Z,98.65
2022-11-26T09:58:40.113Z,96.92
2022-11-26T10:01:05.368Z,97.23
2022-11-26T10:03:35.759Z,97.58
2022-11-26T10:06:34.306Z,97.30
2022-11-26T10:09:11.230Z,98.05
2022-11-26T10:11:49.113Z,97.79
2022-11-26T10:14:48.121Z,97.83
2022-11-26T10:17:18.828Z,97.60
2022-11-26T10:20:02.628Z,95.94
2022-11-26T10:23:11.038Z,94.04
2022-11-26T10:25:45.246Z,93.51
2022-11-26T10:28:21.620Z,92.99
2022-11-26T10:30:43.991Z,90.92
2022-11-26T10:33:07.256Z,89.56
2022-11-26T10:35:29.924Z,88.20
2022-11-26T10:37:52.256Z,87.42
2022-11-26T10:40:28.615Z,86.48
2022-11-26T10:43:12.601Z,86.09
2022-11-26T10:45:55.645Z,86.28
2022-11-26T10:48:33.459Z,84.74
2022-11-26T10:51:11.029Z,86.01
2022-11-26T10:53:52.464Z,85.18
2022-11-26T10:56:19.629Z,87.70
2022-11-26T10:58:43.573Z,88.55
2022-11-26T11:01:06.969Z,89.11
2022-11-26T11:04:06.845Z,89.83
2022-11-26T11:06:19.312Z,88.81
2022-11-26T11:08:40.813Z,88.73
2022-11-26T11:11:04.211Z,88.79
2022-11-26T11:13:43.277Z,89.09
2022-11-26T11:16:04.897Z,88.26
2022-11-26T11:18:26.837Z,88.68
2022-11-26T11:20:57.755Z,89.52
2022-11-26T11:23:21.018Z,89.60
2022-11-26T11:25:47.324Z,87.66
2022-11-26T11:28:21.474Z,88.48
2022-11-26T11:30:44.295Z,87.71
2022-11-26T11:33:20.220Z,89.51
2022-11-26T11:35:41.678Z,90.00
2022-11-26T11:38:03.539Z,89.32
2022-11-26T11:40:29.060Z,89.91
2022-11-26T11:42:56.491Z,89.29
2022-11-26T11:45:42.086Z,92.82
2022-11-26T11:48:12.635Z,93.95
2022-11-26T11:50:38.821Z,93.97
2022-11-26T11:53:18.475Z,94.56
2022-11-26T11:56:02.811Z,95.19
2022-11-26T11:58:38.194Z,96.69
2022-11-26T12:01:18.731Z,96.89
2022-11-26T12:03:43.113Z,97.80
2022-11-26T12:06:43.002Z,96.86
2022-11-26T12:09:29.425Z,97.35
2022-11-26T12:11:58.691Z,97.19
2022-11-26T12:14:32.346Z,96.83
2022-11-26T12:17:00.229Z,97.10
2022-11-26T12:19:54.709Z,97.54
2022-11-26T12:22:22.554Z,97.71
2022-11-26T12:24:52.895Z,96.83
2022-11-26T12:27:36.158Z,98.35
2022-11-26T12:30:03.258Z,98.86
2022-11-26T12:32:51.044Z,98.10
2022-11-26T12:35:20.754Z,96.37
2022-11-26T12:37:43.246Z,97.48
2022-11-26T12:40:08.500Z,96.95
2022-11-26T12:42:51.751Z,96.17
2022-11-26T12:45:33.007Z,95.71
2022-11-26T12:48:00.527Z,95.54
2022-11-26T12:50:38.254Z,94.45
2022-11-26T12:53:33.313Z,93.37
2022-11-26T12:56:03.937Z,93.66
2022-11-26T12:58:43.923Z,93.38
2022-11-26T13:01:05.552Z,90.54
2022-11-26T13:03:33.346Z,90.89
2022-11-26T13:06:29.206Z,90.79
2022-11-26T13:09:03.225Z,90.72
2022-11-26T13:11:50.258Z,91.17
2022-11-26T13:14:32.822Z,90.72
2022-11-26T13:17:02.050Z,89.44
2022-11-26T13:19:38.521Z,88.86
2022-11-26T13:22:22.015Z,87.92
2022-11-26T13:25:31.061Z,88.27
2022-11-26T13:27:59.508Z,86.05
2022-11-26T13:30:26.355Z,86.73
2022-11-26T13:33:12.595Z,85.46
2022-11-26T13:35:57.217Z,86.36
2022-11-26T13:38:41.723Z,85.37
2022-11-26T13:41:27.743Z,86.81
2022-11-26T13:43:55.384Z,88.01
2022-11-26T13:46:22.490Z,88.36
2022-11-26T13:49:06.426Z,90.00
2022-11-26T13:51:42.979Z,89.57
2022-11-26T13:54:11.328Z,89.81
2022-11-26T13:56:36.224Z,89.57
2022-11-26T13:59:08.587Z,89.43
2022-11-26T14:01:40.319Z,88.28
2022-11-26T14:04:03.607Z,88.31
2022-11-26T14:06:25.480Z,87.48
2022-11-26T14:08:52.655Z,87.62
2022-11-26T14:11:54.370Z,88.39
2022-11-26T14:14:25.189Z,87.94
2022-11-26T14:17:14.329Z,89.15
2022-11-26T14:19:41.583Z,88.79
2022-11-26T14:22:03.798Z,88.46
2022-11-26T14:24:48.359Z,88.00
2022-11-26T14:27:09.812Z,87.11
2022-11-26T14:29:31.405Z,86.67
2022-11-26T14:31:54.646Z,86.55
2022-11-26T14:34:38.771Z,86.66
2022-11-26T14:37:02.366Z,86.45
2022-11-26T14:39:25.091Z,86.34
2022-11-26T14:41:46.477Z,86.26
2022-11-26T14:44:13.205Z,86.02
2022-11-26T14:46:35.112Z,85.50
2022-11-26T14:48:59.880Z,84.66
2022-11-26T14:51:24.589Z,84.30
2022-11-26T14:53:48.743Z,84.85
2022-11-26T14:56:10.697Z,85.22
2022-11-26T14:58:56.351Z,85.44
2022-11-26T15:01:23.679Z,84.69
2022-11-26T15:04:39.283Z,84.06
2022-11-26T15:07:00.895Z,83.98
2022-11-26T15:09:25.617Z,84.63
2022-11-26T15:12:12.084Z,84.96
2022-11-26T15:14:42.052Z,84.74
2022-11-26T15:17:05.783Z,84.68
2022-11-26T15:19:31.790Z,82.94
2022-11-26T15:21:53.622Z,83.54
2022-11-26T15:24:15.996Z,83.04
2022-11-26T15:26:38.304Z,82.68
2022-11-26T15:28:59.883Z,82.68
2022-11-26T15:31:21.377Z,82.85
2022-11-26T15:33:44.051Z,83.20
2022-11-26T15:36:07.105Z,83.22
2022-11-26T15:38:31.407Z,83.36
2022-11-26T15:41:15.547Z,83.13
2022-11-26T15:43:45.167Z,83.01
2022-11-26T15:46:20.208Z,82.61
2022-11-26T15:48:52.110Z,82.81
2022-11-26T15:51:24.043Z,83.19
2022-11-26T15:53:48.431Z,83.01
2022-11-26T15:56:16.335Z,82.74
2022-11-26T15:58:40.920Z,82.89
2022-11-26T16:01:04.994Z,82.31
2022-11-26T16:03:34.878Z,83.04
2022-11-26T16:05:56.540Z,83.33
2022-11-26T16:08:27.483Z,83.35
2022-11-26T16:10:56.963Z,82.88
2022-11-26T16:13:20.525Z,83.27
2022-11-26T16:16:05.301Z,83.77
2022-11-26T16:18:36.853Z,84.26
2022-11-26T16:21:15.889Z,84.20
2022-11-26T16:23:37.443Z,84.12
2022-11-26T16:26:19.306Z,84.27
2022-11-26T16:28:41.021Z,84.81
2022-11-26T16:31:02.759Z,84.52
2022-11-26T16:33:27.544Z,84.47
2022-11-26T16:35:49.500Z,84.49
2022-11-26T16:38:22.753Z,84.37
2022-11-26T16:40:44.550Z,84.83
2022-11-26T16:43:06.501Z,84.71
2022-11-26T16:45:28.025Z,84.71
2022-11-26T16:47:52.325Z,84.97
2022-11-26T16:50:39.913Z,85.35
2022-11-26T16:53:01.359Z,85.94
2022-11-26T16:55:26.045Z,86.35
2022-11-26T16:57:51.215Z,85.93
2022-11-26T17:00:21.455Z,86.66
2022-11-26T17:02:43.020Z,86.35
2022-11-26T17:05:04.940Z,85.96
2022-11-26T17:07:37.902Z,85.72
2022-11-26T17:09:59.466Z,85.50
2022-11-26T17:12:23.270Z,85.63
2022-11-26T17:14:46.612Z,85.80
2022-11-26T17:17:12.565Z,85.73
2022-11-26T17:19:34.059Z,86.01
2022-11-26T17:21:55.488Z,85.82
2022-11-26T17:24:20.765Z,85.31
2022-11-26T17:26:44.529Z,85.03
2022-11-26T17:29:05.966Z,84.92
2022-11-26T17:31:27.638Z,84.74
2022-11-26T17:33:50.638Z,84.67
2022-11-26T17:36:20.548Z,84.61
2022-11-26T17:38:42.180Z,84.73
2022-11-26T17:41:03.605Z,84.71
2022-11-26T17:43:25.051Z,84.82
2022-11-26T17:45:46.547Z,84.43
2022-11-26T17:48:12.270Z,84.88
2022-11-26T17:50:36.133Z,84.53
2022-11-26T17:52:57.886Z,84.64
2022-11-26T17:55:20.094Z,84.64
2022-11-26T17:57:41.651Z,85.15
2022-11-26T18:00:04.861Z,85.02
2022-11-26T18:02:26.313Z,85.01
2022-11-26T18:04:47.813Z,85.03
2022-11-26T18:07:12.475Z,84.44
2022-11-26T18:09:34.847Z,84.76
2022-11-26T18:11:56.881Z,84.18
2022-11-26T18:14:19.002Z,84.50
2022-11-26T18:16:40.613Z,84.25
2022-11-26T18:19:02.115Z,84.22
2022-11-26T18:21:23.553Z,84.08
2022-11-26T18:23:48.087Z,84.08
2022-11-26T18:26:18.902Z,84.26
2022-11-26T18:28:40.331Z,84.42
2022-11-26T18:31:01.842Z,84.45
2022-11-26T18:33:23.319Z,84.31
2022-11-26T18:35:44.801Z,84.17
2022-11-26T18:38:09.521Z,84.84
2022-11-26T18:40:30.951Z,84.05
2022-11-26T18:42:52.762Z,84.16
2022-11-26T18:45:15.762Z,84.46
2022-11-26T18:47:37.727Z,83.75
2022-11-26T18:49:59.305Z,84.09
2022-11-26T18:52:20.800Z,83.79
2022-11-26T18:54:42.358Z,83.70
2022-11-26T18:57:03.811Z,83.78
2022-11-26T18:59:26.469Z,83.42
2022-11-26T19:01:48.036Z,83.10
2022-11-26T19:04:10.562Z,82.95
2022-11-26T19:06:33.513Z,82.65
2022-11-26T19:09:00.831Z,83.30
2022-11-26T19:11:24.553Z,82.72
2022-11-26T19:13:46.941Z,82.91
2022-11-26T19:16:16.096Z,83.28
2022-11-26T19:18:38.161Z,82.73
2022-11-26T19:20:59.629Z,83.11
2022-11-26T19:23:24.392Z,82.96
2022-11-26T19:25:45.848Z,83.54
2022-11-26T19:28:07.295Z,83.85
2022-11-26T19:30:28.845Z,84.11
2022-11-26T19:32:50.325Z,83.95
2022-11-26T19:35:13.872Z,83.97
2022-11-26T19:37:35.468Z,84.21
2022-11-26T19:39:56.900Z,84.11
2022-11-26T19:42:18.427Z,84.05
2022-11-26T19:44:48.065Z,84.01
2022-11-26T19:47:09.508Z,83.69
2022-11-26T19:49:30.988Z,83.76
2022-11-26T19:51:53.154Z,83.86
2022-11-26T19:54:14.684Z,83.45
2022-11-26T19:56:36.765Z,84.01
2022-11-26T19:58:59.084Z,84.25
2022-11-26T20:01:21.982Z,84.44
2022-11-26T20:03:44.414Z,84.92
2022-11-26T20:06:11.146Z,84.32
2022-11-26T20:08:33.988Z,84.75
2022-11-26T20:11:01.558Z,83.53
2022-11-26T20:13:23.140Z,83.24
2022-11-26T20:15:48.841Z,83.22
2022-11-26T20:18:10.331Z,83.01
2022-11-26T20:20:31.762Z,83.27
2022-11-26T20:22:53.218Z,84.22
2022-11-26T20:25:15.598Z,84.60
2022-11-26T20:27:37.023Z,84.03
2022-11-26T20:29:58.542Z,84.07
2022-11-26T20:32:21.950Z,84.49
2022-11-26T20:34:44.653Z,84.66
2022-11-26T20:37:06.071Z,84.90
2022-11-26T20:39:28.669Z,84.43
2022-11-26T20:41:50.634Z,84.25
2022-11-26T20:44:13.043Z,83.55
2022-11-26T20:46:34.612Z,83.59
2022-11-26T20:48:56.586Z,83.67
2022-11-26T20:51:19.390Z,84.11
2022-11-26T20:53:42.720Z,84.14
2022-11-26T20:56:05.486Z,84.17
2022-11-26T20:58:27.953Z,83.76
2022-11-26T21:00:49.572Z,83.45
2022-11-26T21:03:11.029Z,83.51
2022-11-26T21:05:33.609Z,83.22
2022-11-26T21:07:55.116Z,83.25
2022-11-26T21:10:16.675Z,83.35
2022-11-26T21:12:38.549Z,82.97
2022-11-26T21:15:01.308Z,83.08
2022-11-26T21:17:22.896Z,83.46
2022-11-26T21:19:44.472Z,83.23
2022-11-26T21:22:05.886Z,83.04
2022-11-26T21:24:27.398Z,83.51
2022-11-26T21:26:48.833Z,82.54
2022-11-26T21:29:10.273Z,83.25
2022-11-26T21:31:32.411Z,82.50
2022-11-26T21:33:56.313Z,83.02
2022-11-26T21:36:17.722Z,83.53
2022-11-26T21:38:40.758Z,82.46
2022-11-26T21:41:06.957Z,82.32
2022-11-26T21:43:28.383Z,82.46
2022-11-26T21:45:49.833Z,82.68
2022-11-26T21:48:11.332Z,83.29
2022-11-26T21:50:32.763Z,83.36
2022-11-26T21:52:54.247Z,83.45
2022-11-26T21:55:15.900Z,83.84
2022-11-26T21:57:37.313Z,83.60
2022-11-26T21:59:58.820Z,83.16
2022-11-26T22:02:20.333Z,82.68
2022-11-26T22:04:41.881Z,82.63
2022-11-26T22:07:03.851Z,82.76
2022-11-26T22:09:25.345Z,82.80
2022-11-26T22:11:46.874Z,83.26
2022-11-26T22:14:10.100Z,82.76
2022-11-26T22:16:31.727Z,83.02
2022-11-26T22:18:54.118Z,83.13
2022-11-26T22:21:25.070Z,82.96
2022-11-26T22:23:46.717Z,83.55
2022-11-26T22:26:08.672Z,83.79
2022-11-26T22:28:30.487Z,83.14
2022-11-26T22:30:52.080Z,83.76
2022-11-26T22:33:13.570Z,83.97
2022-11-26T22:35:35.926Z,84.08
2022-11-26T22:37:57.414Z,83.01
2022-11-26T22:40:18.906Z,83.68
2022-11-26T22:42:40.893Z,83.42
2022-11-26T22:45:02.998Z,83.26
2022-11-26T22:47:24.430Z,83.17
2022-11-26T22:49:45.906Z,85.01
2022-11-26T22:52:07.321Z,84.23
2022-11-26T22:54:28.763Z,83.98
2022-11-26T22:56:50.224Z,85.59
2022-11-26T22:59:13.578Z,85.78
2022-11-26T23:01:36.546Z,85.76
2022-11-26T23:03:59.483Z,86.81
2022-11-26T23:06:23.330Z,86.84
2022-11-26T23:08:45.725Z,88.44
2022-11-26T23:11:09.139Z,88.83
2022-11-26T23:13:30.594Z,87.30
2022-11-26T23:15:52.077Z,87.47
2022-11-26T23:18:15.655Z,88.10
2022-11-26T23:20:37.348Z,88.10
2022-11-26T23:22:58.801Z,87.83
2022-11-26T23:25:20.285Z,88.16
2022-11-26T23:27:41.761Z,87.74
2022-11-26T23:30:04.701Z,87.26
2022-11-26T23:32:32.133Z,87.17
2022-11-26T23:34:54.309Z,87.39
2022-11-26T23:37:15.758Z,86.82
2022-11-26T23:39:37.242Z,87.26
2022-11-26T23:41:58.740Z,87.38
2022-11-26T23:44:20.306Z,87.16
2022-11-26T23:46:41.797Z,88.08
2022-11-26T23:49:04.125Z,88.63
2022-11-26T23:51:28.411Z,88.21
2022-11-26T23:53:51.172Z,88.93
2022-11-26T23:56:15.931Z,90.23
2022-11-26T23:58:37.722Z,92.00
